Time;durP1;ratioP1;P1;durP2;ratioP2;P2;SDS_P1;SDS_P2;PMS_P1;PMS_P2;Temp;Humidity;BMP_temperature;BMP_pressure;BME280_temperature;BME280_humidity;BME280_pressure;Samples;Min_cycle;Max_cycle;Signal;HPM_P1;HPM_P2
2022/12/30 00:00:46;;;;;;;11.13;2.00;;;;;;;10.44;57.45;100938.59;4949308;28;114870;-68
2022/12/30 00:03:14;;;;;;;8.18;1.55;;;;;;;10.45;57.71;100940.31;4963667;28;113301;-68
2022/12/30 00:05:41;;;;;;;8.18;2.10;;;;;;;10.45;57.57;100940.31;4946218;28;124976;-68
2022/12/30 00:08:45;;;;;;;7.82;1.80;;;;;;;10.46;57.59;100952.63;4944113;28;123666;-68
2022/12/30 00:10:55;;;;;;;7.25;1.52;;;;;;;10.45;57.50;100945.59;4945021;28;114649;-68
2022/12/30 00:33:08;;;;;;;9.85;1.80;;;;;;;10.30;57.58;100942.72;4949362;28;114376;-68
2022/12/30 00:35:38;;;;;;;12.55;2.15;;;;;;;10.28;57.49;100944.53;4945215;28;114282;-67
2022/12/30 00:38:05;;;;;;;10.60;2.15;;;;;;;10.28;57.80;100939.22;4938696;28;124580;-68
2022/12/30 00:40:32;;;;;;;9.55;1.80;;;;;;;10.28;57.61;100946.28;4943559;28;124030;-68
2022/12/30 00:43:09;;;;;;;9.90;1.83;;;;;;;10.27;57.51;100953.38;4943589;28;115192;-67
2022/12/30 00:45:42;;;;;;;6.32;1.75;;;;;;;10.27;57.56;100958.69;4943719;28;114757;-68
2022/12/30 00:56:26;;;;;;;10.65;1.85;;;;;;;10.24;57.77;100974.66;4941652;28;113971;-67
2022/12/30 00:58:53;;;;;;;10.38;1.98;;;;;;;10.23;57.95;100972.97;4948075;28;123553;-68
2022/12/30 01:01:20;;;;;;;11.10;2.00;;;;;;;10.23;57.79;100967.66;4946381;28;122583;-67
2022/12/30 01:03:48;;;;;;;8.70;1.77;;;;;;;10.24;57.60;100958.78;4934562;28;113451;-68
2022/12/30 01:06:15;;;;;;;11.32;1.70;;;;;;;10.23;57.85;100957.09;4947863;28;114587;-67
2022/12/30 01:08:42;;;;;;;10.25;1.98;;;;;;;10.23;57.81;100962.38;4941648;28;124235;-68
2022/12/30 01:11:10;;;;;;;5.80;1.63;;;;;;;10.22;57.85;100955.34;4939939;28;124404;-68
2022/12/30 01:13:37;;;;;;;9.15;1.80;;;;;;;10.23;57.58;100956.22;4941332;28;114640;-68
2022/12/30 01:16:09;;;;;;;10.18;2.00;;;;;;;10.22;57.75;100965.94;4934544;28;115004;-68
2022/12/30 01:18:37;;;;;;;7.60;1.73;;;;;;;10.22;57.80;100960.66;4941497;28;123516;-68
2022/12/30 01:21:05;;;;;;;11.88;2.15;;;;;;;10.21;57.65;100969.53;4947030;28;123925;-68
2022/12/30 01:23:34;;;;;;;8.48;1.77;;;;;;;10.19;57.49;100966.09;4945655;28;114057;-68
2022/12/30 01:26:03;;;;;;;11.27;2.25;;;;;;;10.18;57.55;100972.28;4937397;28;113715;-68
2022/12/30 01:28:31;;;;;;;9.75;2.10;;;;;;;10.17;57.55;100967.94;4946637;28;124256;-68
2022/12/30 01:30:59;;;;;;;9.10;2.25;;;;;;;10.14;57.58;100968.91;4958832;28;124267;-68
2022/12/30 01:33:26;;;;;;;10.88;1.98;;;;;;;10.13;58.19;100976.91;4938532;28;115006;-68
2022/12/30 01:35:53;;;;;;;12.05;2.90;;;;;;;10.12;57.65;100975.19;4940504;28;114723;-68
2022/12/30 01:38:20;;;;;;;8.85;2.28;;;;;;;10.11;57.75;100984.03;4951125;28;124611;-68
2022/12/30 01:40:48;;;;;;;10.20;2.38;;;;;;;10.09;58.07;100989.41;4940074;28;123951;-68
2022/12/30 01:43:16;;;;;;;9.00;1.80;;;;;;;10.09;57.96;100997.34;4948075;28;114582;-67
2022/12/30 01:45:48;;;;;;;8.68;1.90;;;;;;;10.06;57.69;100997.47;4939739;28;113924;-67
2022/12/30 01:48:25;;;;;;;10.60;1.85;;;;;;;10.05;57.80;101010.75;4939320;28;123926;-68
2022/12/30 01:51:01;;;;;;;8.38;1.65;;;;;;;10.02;57.63;101005.59;4945303;28;124365;-68
2022/12/30 01:53:32;;;;;;;10.73;2.20;;;;;;;9.99;57.87;101011.88;4943067;28;114333;-68
2022/12/30 01:56:13;;;;;;;8.88;2.20;;;;;;;9.97;57.67;101010.22;4940122;28;113215;-67
2022/12/30 01:58:44;;;;;;;9.70;2.28;;;;;;;9.92;57.54;101013.88;4932468;28;123056;-67
2022/12/30 02:01:11;;;;;;;8.85;1.95;;;;;;;9.90;57.70;101021.03;4940730;28;124546;-68
2022/12/30 02:03:44;;;;;;;9.85;2.20;;;;;;;9.85;57.74;101025.66;4947340;28;114205;-68
2022/12/30 02:06:18;;;;;;;14.85;2.45;;;;;;;9.80;57.85;101017.03;4936758;28;113740;-67
2022/12/30 02:08:45;;;;;;;14.93;2.15;;;;;;;9.77;57.67;101017.13;4944340;28;124694;-68
2022/12/30 02:11:12;;;;;;;10.65;1.77;;;;;;;9.73;57.70;101026.13;4947308;28;124198;-68
2022/12/30 02:13:40;;;;;;;7.93;1.90;;;;;;;9.67;57.76;101019.28;4935325;28;114032;-68
2022/12/30 02:16:41;;;;;;;11.23;1.92;;;;;;;9.61;57.84;101021.31;4941777;28;114388;-67
2022/12/30 02:19:49;;;;;;;15.15;2.30;;;;;;;9.53;57.99;101014.53;4952593;28;123989;-67
2022/12/30 02:22:54;;;;;;;12.45;2.10;;;;;;;9.47;58.05;101014.75;4934876;28;124086;-68
2022/12/30 02:25:33;;;;;;;10.02;2.20;;;;;;;9.40;58.12;101002.69;4938036;28;114375;-67
2022/12/30 02:28:12;;;;;;;13.23;2.42;;;;;;;9.36;58.13;101006.34;4934683;28;114718;-68
2022/12/30 02:30:39;;;;;;;11.15;2.42;;;;;;;9.34;58.13;101013.47;4936218;28;124355;-68
2022/12/30 02:33:44;;;;;;;12.18;2.10;;;;;;;9.30;58.11;101017.16;4936247;28;124524;-68
2022/12/30 02:36:19;;;;;;;9.70;2.40;;;;;;;9.25;58.34;101020.00;4935933;28;114941;-68
2022/12/30 02:39:11;;;;;;;14.80;2.13;;;;;;;9.21;58.31;101004.28;4952516;28;113540;-69
2022/12/30 02:44:48;;;;;;;11.40;2.33;;;;;;;9.15;58.38;100987.75;4935769;28;124559;-69
2022/12/30 02:47:30;;;;;;;12.98;2.17;;;;;;;9.14;58.43;100993.09;4953140;28;113403;-68
2022/12/30 02:52:50;;;;;;;13.63;2.72;;;;;;;9.08;58.76;100980.97;4939109;28;123592;-68
2022/12/30 02:55:18;;;;;;;11.73;2.30;;;;;;;9.05;58.69;100975.78;4945430;28;124335;-69
2022/12/30 02:57:45;;;;;;;19.27;2.92;;;;;;;9.04;58.58;100968.78;4944663;28;114045;-69
2022/12/30 03:06:40;;;;;;;12.00;2.08;;;;;;;8.99;58.97;100965.44;4938938;28;123811;-69
2022/12/30 03:09:22;;;;;;;7.82;1.80;;;;;;;8.98;58.84;100958.44;4940478;28;114114;-68
2022/12/30 03:12:03;;;;;;;9.45;2.20;;;;;;;8.97;58.84;100954.09;4946846;28;114349;-69
2022/12/30 03:14:49;;;;;;;10.52;2.30;;;;;;;8.96;58.74;100954.97;4936201;28;124607;-68
2022/12/30 03:17:23;;;;;;;10.18;2.22;;;;;;;8.95;58.97;100955.91;4939942;28;124316;-69
2022/12/30 03:19:55;;;;;;;11.70;2.13;;;;;;;8.95;58.84;100958.56;4943899;28;115248;-68
2022/12/30 03:27:59;;;;;;;8.23;1.77;;;;;;;8.91;59.14;100951.63;4949971;28;123757;-69
2022/12/30 03:30:27;;;;;;;11.07;2.53;;;;;;;8.90;58.98;100955.22;4944773;28;114544;-68
2022/12/30 03:32:54;;;;;;;14.20;2.25;;;;;;;8.88;58.94;100959.69;4947266;28;114009;-69
2022/12/30 03:35:25;;;;;;;10.00;1.85;;;;;;;8.88;59.25;100957.06;4943678;28;124643;-68
2022/12/30 03:37:56;;;;;;;9.45;1.90;;;;;;;8.87;59.00;100960.59;4958171;28;124002;-68
2022/12/30 03:40:31;;;;;;;8.05;1.92;;;;;;;8.86;58.85;100950.97;4940017;28;114411;-68
2022/12/30 03:42:58;;;;;;;9.13;2.10;;;;;;;8.85;59.00;100951.88;4937095;28;114454;-69
2022/12/30 03:45:26;;;;;;;13.35;2.20;;;;;;;8.86;58.82;100953.63;4939401;28;122968;-69
2022/12/30 03:47:53;;;;;;;10.93;2.08;;;;;;;8.85;59.05;100954.50;4949648;28;124444;-69
2022/12/30 03:50:20;;;;;;;11.63;2.35;;;;;;;8.84;58.98;100960.72;4948569;28;114451;-69
2022/12/30 03:52:47;;;;;;;9.07;2.10;;;;;;;8.84;59.18;100971.28;4945372;28;113709;-68
2022/12/30 03:55:14;;;;;;;9.45;1.77;;;;;;;8.84;59.28;100960.72;4949012;28;124235;-69
2022/12/30 03:57:41;;;;;;;11.05;2.15;;;;;;;8.84;59.14;100966.00;4938911;28;124021;-69
2022/12/30 04:00:09;;;;;;;9.35;2.17;;;;;;;8.83;59.05;100970.41;4943509;28;114461;-69
2022/12/30 04:02:39;;;;;;;7.50;1.85;;;;;;;8.82;59.11;100973.97;4940909;28;113235;-68
2022/12/30 04:05:07;;;;;;;11.98;2.05;;;;;;;8.82;59.17;100973.13;4939942;28;124129;-69
2022/12/30 04:07:35;;;;;;;9.57;2.00;;;;;;;8.82;59.35;100973.13;4941782;28;123976;-69
2022/12/30 04:10:03;;;;;;;10.80;1.98;;;;;;;8.80;59.56;100959.09;4945526;28;116383;-69
2022/12/30 04:12:30;;;;;;;13.52;2.17;;;;;;;8.80;59.45;100959.09;4948106;28;114814;-69
2022/12/30 04:14:57;;;;;;;10.57;2.38;;;;;;;8.79;59.21;100962.66;4924086;28;123488;-69
2022/12/30 04:17:24;;;;;;;9.48;2.20;;;;;;;8.79;59.35;100957.38;4938642;28;124695;-68
2022/12/30 04:19:51;;;;;;;15.02;2.65;;;;;;;8.79;59.29;100962.66;4946593;28;114641;-69
2022/12/30 04:22:18;;;;;;;10.52;2.08;;;;;;;8.80;59.34;100956.44;4935570;28;113635;-68
2022/12/30 04:24:45;;;;;;;13.10;2.35;;;;;;;8.80;59.41;100964.38;4945357;28;124011;-69
2022/12/30 04:27:12;;;;;;;8.98;2.10;;;;;;;8.80;59.42;100964.38;4941038;28;123788;-69
2022/12/30 04:29:39;;;;;;;9.43;2.13;;;;;;;8.79;59.36;100952.94;4944685;28;113891;-69
2022/12/30 04:32:06;;;;;;;10.85;2.17;;;;;;;8.81;59.41;100966.09;4938734;28;113136;-69
2022/12/30 04:34:33;;;;;;;12.23;2.50;;;;;;;8.79;59.74;100962.66;4944362;28;124579;-68
2022/12/30 04:37:00;;;;;;;8.82;1.90;;;;;;;8.79;59.59;100965.31;4954369;28;122746;-69
2022/12/30 04:39:27;;;;;;;6.60;2.03;;;;;;;8.78;59.71;100967.09;4938584;28;114068;-68
2022/12/30 04:41:55;;;;;;;11.98;2.15;;;;;;;8.77;59.67;100960.94;4939596;28;114248;-69
2022/12/30 04:44:22;;;;;;;10.65;2.28;;;;;;;8.78;59.43;100967.09;4935368;28;123963;-69
2022/12/30 04:46:49;;;;;;;11.52;2.38;;;;;;;8.79;59.74;100967.94;4952791;28;124346;-68
2022/12/30 04:49:16;;;;;;;10.52;2.00;;;;;;;8.78;59.57;100956.53;4938600;28;114209;-68
2022/12/30 04:51:43;;;;;;;10.88;2.13;;;;;;;8.79;59.61;100962.66;4935081;28;113277;-68
2022/12/30 04:54:10;;;;;;;12.13;2.08;;;;;;;8.77;59.65;100960.94;4934603;28;123979;-68
2022/12/30 04:56:37;;;;;;;9.93;2.05;;;;;;;8.79;59.47;100967.94;4939203;28;123836;-69
2022/12/30 04:59:04;;;;;;;9.90;1.98;;;;;;;8.79;59.58;100967.94;4938759;28;115265;-68
2022/12/30 05:01:31;;;;;;;10.20;2.70;;;;;;;8.79;59.84;100968.78;4945311;28;114078;-69
2022/12/30 05:03:59;;;;;;;12.93;2.35;;;;;;;8.79;59.75;100973.22;4943321;28;123990;-68
2022/12/30 05:06:26;;;;;;;8.80;2.10;;;;;;;8.77;59.65;100966.22;4940123;28;124078;-69
2022/12/30 05:08:53;;;;;;;8.95;2.10;;;;;;;8.78;59.70;100977.66;4941677;28;114437;-69
2022/12/30 05:11:20;;;;;;;10.38;2.50;;;;;;;8.77;59.88;100976.78;4934628;28;114331;-69
2022/12/30 05:13:47;;;;;;;14.77;2.47;;;;;;;8.76;59.67;100975.06;4940875;28;124589;-69
2022/12/30 05:16:14;;;;;;;10.13;2.25;;;;;;;8.77;60.08;100982.06;4940949;28;123884;-69
2022/12/30 05:18:41;;;;;;;10.98;2.20;;;;;;;8.77;59.59;100970.63;4943612;28;114343;-69
2022/12/30 05:21:08;;;;;;;11.88;2.10;;;;;;;8.75;59.88;100968.03;4941975;28;112951;-69
2022/12/30 05:26:21;;;;;;;;;;;;;;;8.71;59.71;100961.16;4938304;28;124610;-68
2022/12/30 05:28:49;;;;;;;12.25;2.40;;;;;;;8.71;59.96;100960.31;4946684;28;114511;-69
2022/12/30 05:31:18;;;;;;;12.65;2.00;;;;;;;8.69;60.21;100957.72;4940215;28;114007;-68
2022/12/30 05:33:45;;;;;;;9.40;2.22;;;;;;;8.69;59.88;100952.44;4940748;28;123142;-68
2022/12/30 05:36:14;;;;;;;15.50;2.35;;;;;;;8.67;60.03;100954.25;4938377;28;122666;-68
2022/12/30 05:38:41;;;;;;;13.75;2.53;;;;;;;8.67;59.95;100959.53;4948935;28;114202;-68
2022/12/30 05:41:10;;;;;;;14.60;2.58;;;;;;;8.66;60.17;100957.81;4943541;28;114257;-68
2022/12/30 05:43:48;;;;;;;11.95;2.00;;;;;;;8.67;59.98;100959.53;4938187;28;122625;-69
2022/12/30 05:46:16;;;;;;;11.82;2.30;;;;;;;8.68;60.05;100961.28;4938900;28;124545;-69
2022/12/30 05:48:43;;;;;;;12.93;2.45;;;;;;;8.68;60.02;100956.00;4939359;28;115788;-68
2022/12/30 05:51:10;;;;;;;13.48;2.33;;;;;;;8.68;60.11;100950.72;4940440;28;115052;-68
2022/12/30 05:53:37;;;;;;;11.57;2.28;;;;;;;8.66;59.98;100952.53;4945423;28;124310;-69
2022/12/30 05:56:04;;;;;;;11.93;2.83;;;;;;;8.67;60.44;100941.06;4941723;28;124509;-69
2022/12/30 05:58:32;;;;;;;11.55;2.10;;;;;;;8.67;60.32;100948.97;4956986;28;113607;-68
2022/12/30 06:00:59;;;;;;;7.00;2.00;;;;;;;8.67;60.24;100948.13;4941954;28;114264;-68
2022/12/30 06:03:28;;;;;;;13.00;2.50;;;;;;;8.66;60.22;100952.53;4944513;28;124883;-68
2022/12/30 06:05:57;;;;;;;13.65;2.75;;;;;;;8.66;60.03;100963.09;4951826;28;123279;-69
2022/12/30 06:08:24;;;;;;;11.43;2.15;;;;;;;8.65;60.26;100950.81;4953377;28;113328;-68
2022/12/30 06:10:52;;;;;;;6.75;1.90;;;;;;;8.62;60.33;100945.63;4941251;28;114277;-68
2022/12/30 06:13:19;;;;;;;11.02;2.10;;;;;;;8.63;60.40;100941.25;4940484;28;124218;-68
2022/12/30 06:15:46;;;;;;;13.43;2.20;;;;;;;8.62;60.03;100945.63;4933818;28;123515;-68
2022/12/30 06:18:14;;;;;;;10.70;2.45;;;;;;;8.62;60.20;100940.34;4945102;28;113741;-69
2022/12/30 06:20:41;;;;;;;10.85;2.22;;;;;;;8.61;60.18;100932.47;4937080;28;114664;-68
2022/12/30 06:23:08;;;;;;;15.13;2.60;;;;;;;8.60;60.40;100936.91;4945415;28;124354;-69
2022/12/30 06:25:35;;;;;;;11.07;2.55;;;;;;;8.59;60.12;100937.84;4937829;28;123676;-68
2022/12/30 06:28:02;;;;;;;12.13;2.20;;;;;;;8.58;60.27;100934.31;4934085;28;114943;-69
2022/12/30 06:30:29;;;;;;;14.57;2.20;;;;;;;8.58;60.30;100933.47;4940725;28;114789;-68
2022/12/30 06:32:59;;;;;;;12.35;2.75;;;;;;;8.59;60.30;100929.91;4938938;28;124803;-68
2022/12/30 06:35:26;;;;;;;11.27;2.10;;;;;;;8.60;60.40;100931.63;4941058;28;124326;-68
2022/12/30 06:37:53;;;;;;;12.63;2.30;;;;;;;8.60;60.50;100925.50;4940897;28;114983;-68
2022/12/30 06:40:20;;;;;;;9.13;2.60;;;;;;;8.59;60.47;100919.38;4942014;28;115257;-69
2022/12/30 06:42:47;;;;;;;12.25;2.20;;;;;;;8.60;60.67;100930.78;4938716;28;124434;-68
2022/12/30 06:45:15;;;;;;;10.75;2.28;;;;;;;8.60;60.45;100917.56;4943941;28;123831;-68
2022/12/30 06:47:42;;;;;;;15.50;2.80;;;;;;;8.62;60.61;100924.50;4948584;28;115016;-68
2022/12/30 06:50:09;;;;;;;8.27;2.33;;;;;;;8.63;60.66;100915.69;4940662;28;113026;-69
2022/12/30 06:52:36;;;;;;;10.40;2.40;;;;;;;8.65;60.75;100916.50;4949845;28;124379;-68
2022/12/30 06:55:04;;;;;;;11.13;2.70;;;;;;;8.67;60.66;100917.28;4938486;28;124613;-69
2022/12/30 06:57:33;;;;;;;10.73;2.33;;;;;;;8.67;60.88;100912.03;4937497;28;114301;-69
2022/12/30 07:00:01;;;;;;;10.32;2.20;;;;;;;8.69;60.67;100912.81;4945453;28;114226;-69
2022/12/30 07:02:28;;;;;;;11.90;2.42;;;;;;;8.71;60.67;100897.78;4939339;28;124375;-69
2022/12/30 07:04:55;;;;;;;7.63;2.13;;;;;;;8.73;60.71;100895.94;4937388;28;124153;-69
2022/12/30 07:07:23;;;;;;;10.73;2.28;;;;;;;8.74;60.91;100892.41;4934066;28;113143;-69
2022/12/30 07:09:50;;;;;;;5.63;2.33;;;;;;;8.75;60.82;100880.91;4947062;28;113743;-68
2022/12/30 07:12:18;;;;;;;9.50;1.80;;;;;;;8.76;60.65;100874.72;4945002;28;124727;-69
2022/12/30 07:14:45;;;;;;;5.30;1.90;;;;;;;8.77;60.95;100873.78;4943458;28;124353;-69
2022/12/30 07:17:12;;;;;;;10.07;1.85;;;;;;;8.80;60.69;100858.75;4944315;28;115285;-69
2022/12/30 07:19:39;;;;;;;9.27;1.90;;;;;;;8.81;60.57;100855.19;4944597;28;114990;-69
2022/12/30 07:22:06;;;;;;;6.05;1.83;;;;;;;8.81;60.47;100855.19;4942887;28;126016;-68
2022/12/30 07:24:33;;;;;;;8.00;2.08;;;;;;;8.81;60.77;100849.91;4941278;28;124451;-68
2022/12/30 07:27:00;;;;;;;6.75;2.10;;;;;;;8.81;60.39;100844.63;4935638;28;115453;-69
2022/12/30 07:29:27;;;;;;;4.40;1.80;;;;;;;8.80;60.58;100843.78;4938018;28;115458;-68
2022/12/30 07:31:54;;;;;;;9.00;2.45;;;;;;;8.80;60.56;100849.06;4939975;28;123341;-69
2022/12/30 07:34:21;;;;;;;8.73;1.80;;;;;;;8.81;60.72;100844.63;4940098;28;123846;-68
2022/12/30 07:36:49;;;;;;;5.40;2.10;;;;;;;8.80;60.77;100853.47;4941581;28;113117;-69
2022/12/30 07:39:16;;;;;;;9.75;1.80;;;;;;;8.81;60.45;100847.28;4937237;28;114256;-69
2022/12/30 07:41:43;;;;;;;3.90;1.48;;;;;;;8.82;60.88;100846.38;4940681;28;124469;-69
2022/12/30 07:44:10;;;;;;;6.40;1.85;;;;;;;8.84;60.90;100839.25;4943518;28;122814;-69
2022/12/30 07:46:37;;;;;;;9.40;1.98;;;;;;;8.86;60.60;100842.69;4939925;28;113263;-69
2022/12/30 07:49:04;;;;;;;4.00;1.60;;;;;;;8.88;60.63;100835.56;4938613;28;114282;-69
2022/12/30 07:51:31;;;;;;;5.35;1.70;;;;;;;8.90;60.65;100823.16;4946231;28;124269;-68
2022/12/30 07:53:58;;;;;;;5.03;1.73;;;;;;;8.92;60.59;100816.03;4939077;28;123933;-69
2022/12/30 07:56:33;;;;;;;4.90;1.50;;;;;;;8.93;60.83;100807.19;4939935;28;114124;-69
2022/12/30 07:59:02;;;;;;;6.88;1.45;;;;;;;8.96;60.71;100807.06;4941372;28;114155;-69
2022/12/30 08:01:30;;;;;;;9.38;2.13;;;;;;;8.99;60.74;100806.09;4949612;28;124240;-70
2022/12/30 08:03:57;;;;;;;7.57;1.60;;;;;;;9.00;60.76;100798.09;4943645;28;123956;-69
2022/12/30 08:06:39;;;;;;;8.93;1.60;;;;;;;9.02;60.68;100782.19;4940346;28;113369;-69
2022/12/30 08:09:07;;;;;;;6.10;1.60;;;;;;;9.04;60.89;100783.88;4941092;28;114251;-69
2022/12/30 08:11:34;;;;;;;11.10;2.17;;;;;;;9.06;60.61;100781.13;4941038;28;124083;-69
2022/12/30 08:14:02;;;;;;;5.88;2.03;;;;;;;9.09;60.74;100779.25;4941873;28;125346;-69
2022/12/30 08:16:29;;;;;;;7.03;1.65;;;;;;;9.13;60.94;100778.19;4941493;28;114274;-69
2022/12/30 08:18:56;;;;;;;6.63;1.67;;;;;;;9.16;60.97;100778.06;4945814;28;114838;-68
2022/12/30 08:21:23;;;;;;;6.55;1.48;;;;;;;9.19;60.75;100770.94;4948165;28;124073;-69
2022/12/30 08:23:50;;;;;;;6.07;1.80;;;;;;;9.24;60.91;100768.97;4940288;28;124531;-68
2022/12/30 08:26:20;;;;;;;7.97;1.95;;;;;;;9.27;60.51;100768.88;4942975;28;114449;-69
2022/12/30 08:28:48;;;;;;;9.20;5.05;;;;;;;9.30;60.81;100769.56;4940618;28;114530;-69
2022/12/30 08:31:18;;;;;;;5.72;2.53;;;;;;;9.33;60.84;100758.03;4956996;28;123095;-69
2022/12/30 08:33:45;;;;;;;6.30;2.35;;;;;;;9.37;60.88;100759.63;4945905;28;124976;-69
2022/12/30 08:36:15;;;;;;;3.60;1.92;;;;;;;9.41;60.75;100755.94;4945931;28;114920;-69
2022/12/30 08:38:46;;;;;;;7.63;1.75;;;;;;;9.46;60.70;100748.66;4946215;28;113441;-69
2022/12/30 08:41:25;;;;;;;9.88;1.60;;;;;;;9.51;60.68;100736.13;4942173;28;123411;-69
2022/12/30 08:43:55;;;;;;;5.70;1.63;;;;;;;9.54;60.72;100733.34;4941862;28;123788;-69
2022/12/30 08:46:23;;;;;;;7.72;1.60;;;;;;;9.60;60.66;100726.06;4942274;28;114367;-69
2022/12/30 08:48:50;;;;;;;5.75;1.65;;;;;;;9.63;60.93;100718.03;4938405;28;114503;-69
2022/12/30 08:51:18;;;;;;;6.63;2.17;;;;;;;9.66;60.66;100733.72;4942580;28;123712;-69
2022/12/30 08:53:45;;;;;;;3.42;1.50;;;;;;;9.70;60.69;100722.09;4940182;28;124886;-69
2022/12/30 08:56:18;;;;;;;8.10;1.67;;;;;;;9.72;60.65;100722.91;4938646;28;113868;-69
2022/12/30 08:58:46;;;;;;;25.30;9.73;;;;;;;9.77;60.67;100715.63;4946211;28;113822;-70
2022/12/30 09:01:21;;;;;;;9.65;3.80;;;;;;;9.80;60.79;100720.78;4945853;28;124774;-69
2022/12/30 09:03:50;;;;;;;10.23;6.43;;;;;;;9.83;60.42;100696.84;4932185;28;124453;-69
2022/12/30 09:06:20;;;;;;;8.55;3.42;;;;;;;9.87;60.61;100706.38;4946028;28;115052;-69
2022/12/30 09:08:48;;;;;;;7.88;3.40;;;;;;;9.88;60.63;100697.50;4944394;28;114577;-69
2022/12/30 09:11:21;;;;;;;7.75;2.80;;;;;;;9.92;60.56;100704.34;4937663;28;123746;-69
2022/12/30 09:13:48;;;;;;;6.32;2.33;;;;;;;9.96;60.79;100698.94;4937165;28;124078;-69
2022/12/30 09:16:23;;;;;;;8.57;1.92;;;;;;;9.98;60.71;100689.16;4944376;28;113920;-69
2022/12/30 09:18:52;;;;;;;5.07;1.67;;;;;;;10.01;60.75;100691.66;4941207;28;114417;-69
2022/12/30 09:21:19;;;;;;;5.88;1.45;;;;;;;10.05;60.54;100685.28;4937444;28;124763;-69
2022/12/30 09:23:46;;;;;;;6.25;1.23;;;;;;;10.09;60.42;100684.22;4940007;28;124683;-69
2022/12/30 09:26:16;;;;;;;4.95;1.25;;;;;;;10.12;60.45;100678.81;4939173;28;114540;-69
2022/12/30 09:28:43;;;;;;;7.07;1.50;;;;;;;10.15;60.59;100678.63;4944457;28;113996;-69
2022/12/30 09:31:11;;;;;;;4.80;1.40;;;;;;;10.17;60.58;100666.22;4942413;28;123963;-69
2022/12/30 09:33:38;;;;;;;7.80;1.40;;;;;;;10.21;60.35;100651.91;4937567;28;124037;-69
2022/12/30 09:36:06;;;;;;;1.58;1.00;;;;;;;10.23;60.55;100659.78;4937020;28;114444;-69
2022/12/30 09:38:34;;;;;;;3.22;1.40;;;;;;;10.25;60.53;100658.78;4942253;28;114845;-69
2022/12/30 09:43:14;;;;;;;5.45;1.67;;;;;;;10.29;60.50;100652.41;4932655;28;123961;-68
2022/12/30 09:44:18;;;;;;;11.03;3.60;;;;;;;10.33;60.58;100650.50;4953045;28;123294;-68
2022/12/30 09:47:04;;;;;;;6.03;1.88;;;;;;;10.37;60.54;100640.63;4945848;28;114407;-68
2022/12/30 09:49:47;;;;;;;3.15;1.13;;;;;;;10.40;60.44;100636.06;4932579;28;114539;-68
2022/12/30 09:52:31;;;;;;;4.00;1.30;;;;;;;10.45;60.51;100633.16;4946782;28;123125;-68
2022/12/30 09:55:09;;;;;;;6.85;3.25;;;;;;;10.48;60.36;100630.38;4930914;28;123897;-68
2022/12/30 09:57:37;;;;;;;8.48;2.28;;;;;;;10.52;60.33;100630.16;4930731;28;115400;-69
2022/12/30 10:00:14;;;;;;;5.15;2.33;;;;;;;10.57;60.52;100627.31;4939137;28;114959;-68
2022/12/30 10:03:03;;;;;;;3.80;1.63;;;;;;;10.62;60.39;100619.97;4950165;28;123531;-68
2022/12/30 10:06:23;;;;;;;5.57;2.63;;;;;;;10.67;60.59;100607.38;4934182;28;123788;-69
2022/12/30 10:09:14;;;;;;;5.35;1.77;;;;;;;10.73;60.39;100600.06;4941741;28;114109;-69
2022/12/30 10:11:47;;;;;;;5.45;1.35;;;;;;;10.78;60.36;100592.75;4940123;28;114270;-71
2022/12/30 10:14:20;;;;;;;5.03;1.25;;;;;;;10.83;60.33;100596.00;4941701;28;123615;-68
2022/12/30 10:16:59;;;;;;;2.22;0.85;;;;;;;10.89;60.49;100577.16;4951043;28;124414;-68
2022/12/30 10:19:35;;;;;;;4.78;1.27;;;;;;;10.96;60.32;100570.59;4935320;28;114385;-69
2022/12/30 10:22:23;;;;;;;6.43;1.08;;;;;;;11.02;60.34;100565.00;4951700;28;114027;-69
2022/12/30 10:25:02;;;;;;;3.90;1.50;;;;;;;11.08;60.09;100563.84;4946186;28;124404;-69
2022/12/30 10:27:39;;;;;;;5.80;1.67;;;;;;;11.13;60.09;100561.78;4942897;28;123617;-69
2022/12/30 10:30:15;;;;;;;7.68;2.05;;;;;;;11.19;60.28;100561.47;4943382;28;114418;-69
2022/12/30 10:32:50;;;;;;;4.90;1.50;;;;;;;11.26;60.17;100556.69;4948608;28;113989;-69
2022/12/30 10:35:31;;;;;;;4.65;1.05;;;;;;;11.32;60.14;100540.50;4937801;28;125383;-69
2022/12/30 10:38:14;;;;;;;3.58;0.88;;;;;;;11.39;60.01;100541.00;4944992;28;125389;-69
2022/12/30 10:41:23;;;;;;;6.38;0.98;;;;;;;11.43;60.02;100530.16;4934300;28;114147;-69
2022/12/30 10:44:30;;;;;;;5.57;1.98;;;;;;;11.49;59.86;100515.72;4939335;28;114743;-69
2022/12/30 10:47:22;;;;;;;6.43;2.30;;;;;;;11.53;59.90;100503.13;4940327;28;123198;-68
2022/12/30 10:50:09;;;;;;;6.10;1.40;;;;;;;11.57;59.75;100497.59;4941036;28;123843;-68
2022/12/30 10:52:36;;;;;;;7.07;1.90;;;;;;;11.60;59.71;100485.94;4944487;28;115916;-68
2022/12/30 10:55:26;;;;;;;5.82;1.27;;;;;;;11.63;59.64;100469.88;4945026;28;119179;-69
2022/12/30 10:58:01;;;;;;;5.75;1.35;;;;;;;11.65;59.42;100462.69;4941570;28;124237;-69
2022/12/30 11:00:32;;;;;;;6.40;1.67;;;;;;;11.67;59.71;100453.69;4941770;28;124663;-69
2022/12/30 11:03:12;;;;;;;5.78;1.48;;;;;;;11.71;59.62;100449.06;4945476;28;114730;-68
2022/12/30 11:05:39;;;;;;;5.20;1.45;;;;;;;11.74;59.41;100440.94;4946798;28;114969;-69
2022/12/30 11:11:04;;;;;;;2.33;1.23;;;;;;;11.78;59.37;100421.25;4994958;28;96696;-68
2022/12/30 11:16:24;;;;;;;2.70;1.20;;;;;;;11.82;59.20;100396.25;4983054;28;123691;-68
2022/12/30 11:18:52;;;;;;;2.90;1.30;;;;;;;11.85;58.84;100385.47;4981626;28;124304;-68
2022/12/30 11:21:30;;;;;;;5.40;0.98;;;;;;;11.87;59.09;100394.19;4977161;28;107998;-68
2022/12/30 11:24:00;;;;;;;8.13;1.95;;;;;;;11.90;58.97;100371.09;4979587;28;107357;-69
2022/12/30 11:26:30;;;;;;;4.40;1.98;;;;;;;11.91;59.08;100365.72;4982115;28;123749;-68
2022/12/30 11:29:07;;;;;;;5.72;2.20;;;;;;;11.93;58.95;100360.31;4979103;28;125056;-68
2022/12/30 11:31:41;;;;;;;4.57;2.53;;;;;;;11.94;58.88;100340.78;4968335;28;106322;-67
2022/12/30 11:34:27;;;;;;;7.13;3.90;;;;;;;11.95;59.07;100342.50;4976075;28;107482;-68
2022/12/30 11:36:54;;;;;;;3.17;1.80;;;;;;;11.96;58.93;100338.88;4973996;28;123970;-68
2022/12/30 11:39:30;;;;;;;3.08;1.48;;;;;;;11.96;58.79;100322.97;4974114;28;123690;-67
2022/12/30 11:42:00;;;;;;;4.88;1.40;;;;;;;11.97;58.89;100324.69;4976604;28;107023;-70
2022/12/30 11:44:32;;;;;;;4.32;1.27;;;;;;;11.99;58.98;100317.50;4969661;28;107980;-67
2022/12/30 11:47:10;;;;;;;3.20;1.40;;;;;;;12.00;58.72;100308.59;4992315;28;124294;-68
2022/12/30 11:49:47;;;;;;;2.15;1.30;;;;;;;12.01;58.82;100289.06;4977321;28;123804;-67
2022/12/30 11:52:28;;;;;;;4.32;1.10;;;;;;;12.03;58.83;100276.53;4977122;28;107619;-67
2022/12/30 11:54:58;;;;;;;2.85;1.00;;;;;;;12.04;58.70;100271.16;4983843;28;106783;-67
2022/12/30 11:57:27;;;;;;;2.35;1.15;;;;;;;12.06;58.69;100261.28;4979898;28;124335;-67
2022/12/30 12:00:02;;;;;;;2.60;0.82;;;;;;;12.07;58.59;100246.22;4983662;28;123719;-67
2022/12/30 12:02:40;;;;;;;5.20;1.75;;;;;;;12.08;58.75;100232.00;4981534;28;107846;-67
2022/12/30 12:05:22;;;;;;;6.50;2.90;;;;;;;12.10;58.59;100227.47;4983778;28;107841;-67
2022/12/30 12:07:53;;;;;;;7.63;3.38;;;;;;;12.13;58.69;100229.94;4982472;28;124401;-67
2022/12/30 12:10:31;;;;;;;8.80;3.70;;;;;;;12.14;58.54;100226.31;4980940;28;124562;-67
2022/12/30 12:13:15;;;;;;;4.95;2.55;;;;;;;12.17;58.58;100223.47;4981205;28;107640;-67
2022/12/30 12:15:46;;;;;;;3.90;2.63;;;;;;;12.21;58.65;100217.03;4981994;28;107796;-67
2022/12/30 12:18:19;;;;;;;4.10;1.50;;;;;;;12.24;58.61;100205.34;4984049;28;124595;-67
2022/12/30 12:20:59;;;;;;;3.60;1.33;;;;;;;12.27;58.52;100195.41;4977283;28;123930;-67
2022/12/30 12:23:57;;;;;;;3.90;1.20;;;;;;;12.30;58.57;100188.19;4968780;28;107819;-67
2022/12/30 12:26:27;;;;;;;5.03;1.38;;;;;;;12.31;58.58;100174.81;4960470;28;107530;-67
2022/12/30 12:28:56;;;;;;;3.85;2.00;;;;;;;12.33;58.51;100169.41;4965848;28;126022;-67
2022/12/30 12:31:45;;;;;;;9.82;4.10;;;;;;;12.38;58.33;100167.34;4963385;28;122765;-66
2022/12/30 12:34:19;;;;;;;8.75;3.92;;;;;;;12.42;58.39;100160.88;4966055;28;107604;-66